Bishop International Airport
KFNT : now visible

Airfield :











YOU CAN JOIN US ON...

 
LOGIN :

Register | Disclaimer

   EN    FR    IT 

 









Legend :    VFR   Marginal VFR   IFR   Intensive IFR   Very Intensive IFR
Visi :
Ceiling :
>= 8 km
>= 3000ft
5 to 8 km
1000 to 3000 ft
1500m to 5 km
500 to 1000 ft
800 to 1500m
200 to 500 ft
< 800m
< 200 ft
Symbols :   Thunderstorms  Fog  Heavy snow  Heavy precipitations  Wind > 20 kt






- Airport Elevation : 782 ft
- IATA code : FNT


KFNT - Bishop International

CURRENT METAR :
  • 060453Z 00000KT 10SM -RA CLR 24/16 A3000 RMK AO2 RAB26 SLP151 P0000 T02440156 403560172 $

EXPIRED METARs :
  • 060353Z 00000KT 10SM CLR 26/16 A3000 RMK AO2 RAE09 SLP151 P0000 T02610156 $
  • 060253Z 08006KT 10SM -RA CLR 27/16 A2999 RMK AO2 RAB08E09B37 SLP147 P0000 60000 T02720161 53013 $

TAF KFNT
Valid from the 06 at 06:00 until the 07 at 06:00 UTC


060541Z 0606/0706 VRB03KT P6SM FEW120
FM061700 20007KT P6SM SCT070
FM070100 18004KT P6SM FEW080
KZOB FIR / North America



MET'MAP, your aeronautical weather chart ! - Copyright ORBIFLY December 2007 - Disclaimer

ORBIFLY MET'MAP TEAM :

Programming & Development : Alexandra Zaïnal
Concept & original design : Baudouin d'Aumeries
Assistance for programming : Marc-Olivier Méhu
Technical & hardware support : Manuel Goepfert

Contact : metmap@orbifly.com




SOURCES & CREDITS :

   NOAA       Earth
Advisory